Check out our new PWSWeather beta!
PWSweather.com
Personal Weather Stations
Station Observations
SHAHALMS1
Eftra, Falkenberg, HA

EftraFalkenberg, HA

Lat: 56.85, Lon: 12.65

Elevation: 140

Station Type:

http://hem.passagen.se/risarp101

High Low Average
Temperature 79.5°F26.4°C 58.5°F14.7°C 69.0°F20.6°C
Dew Point 66.2°F19.0°C 56.2°F13.4°C 61.1°F16.2°C
Winds 8.6 mph 13.8 kmh Calm Calm 4.0 mph SE6.4 kmh SE
Wind Gusts 28.3 mph45.5 kmh -- 10.0 mph16.1 kmh
Humidity 96% 56% 77%
Pressure 30.15 in1021.0 mb 29.83 in1010.2 mb -
Precipitation 0.00 in0.0 mm - -
Hour Temp Dew Point Humidity Winds Wind Gusts Pressure Precip Precip Rate Daily Precip Total
12:00 AM 60.8°F16.0°C 57.2°F14.0°C 88% 1.6 mph SSE2.6 kmh SSE 6.4 mph10.3 kmh 30.15 in1021.0 mb 0.00 in0.0 mm 0.00 in0.0 mm 0.00 in0.0 mm
12:10 AM 61.2°F16.2°C 57.9°F14.4°C 89% 2.6 mph S4.2 kmh S 6.4 mph10.3 kmh 30.15 in1021.0 mb 0.00 in0.0 mm 0.00 in0.0 mm 0.00 in0.0 mm
12:20 AM 61.3°F16.3°C 58.4°F14.7°C 90% 3.3 mph S5.3 kmh S 7.9 mph12.7 kmh 30.15 in1021.0 mb 0.00 in0.0 mm 0.00 in0.0 mm 0.00 in0.0 mm
12:30 AM 61.0°F16.1°C 57.7°F14.3°C 89% 1.6 mph S2.6 kmh S 5.0 mph8.0 kmh 30.15 in1021.0 mb 0.00 in0.0 mm 0.00 in0.0 mm 0.00 in0.0 mm
12:40 AM 61.2°F16.2°C 58.2°F14.6°C 90% 2.7 mph S4.3 kmh S 6.8 mph10.9 kmh 30.15 in1021.0 mb 0.00 in0.0 mm 0.00 in0.0 mm 0.00 in0.0 mm
12:50 AM 61.5°F16.4°C 58.9°F14.9°C 91% 1.7 mph S2.7 kmh S 6.4 mph10.3 kmh 30.15 in1021.0 mb 0.00 in0.0 mm 0.00 in0.0 mm 0.00 in0.0 mm
01:00 AM 61.9°F16.6°C 59.2°F15.1°C 91% 1.0 mph SSW1.6 kmh SSW 5.7 mph9.2 kmh 30.15 in1021.0 mb 0.00 in0.0 mm 0.00 in0.0 mm 0.00 in0.0 mm
01:10 AM 62.1°F16.7°C 59.4°F15.2°C 91% 2.4 mph S3.9 kmh S 6.8 mph10.9 kmh 30.15 in1021.0 mb 0.00 in0.0 mm 0.00 in0.0 mm 0.00 in0.0 mm
01:20 AM 62.1°F16.7°C 59.1°F15.1°C 90% 2.0 mph S3.2 kmh S 5.0 mph8.0 kmh 30.15 in1021.0 mb 0.00 in0.0 mm 0.00 in0.0 mm 0.00 in0.0 mm
01:30 AM 62.1°F16.7°C 59.1°F15.1°C 90% 1.7 mph S2.7 kmh S 5.7 mph9.2 kmh 30.15 in1021.0 mb 0.00 in0.0 mm 0.00 in0.0 mm 0.00 in0.0 mm
01:40 AM 61.9°F16.6°C 58.9°F14.9°C 90% 1.0 mph S1.6 kmh S 5.0 mph8.0 kmh 30.15 in1021.0 mb 0.00 in0.0 mm 0.00 in0.0 mm 0.00 in0.0 mm
01:50 AM 61.7°F16.5°C 58.7°F14.8°C 90% 0.8 mph S1.3 kmh S 3.9 mph6.3 kmh 30.15 in1021.0 mb 0.00 in0.0 mm 0.00 in0.0 mm 0.00 in0.0 mm
02:00 AM 61.5°F16.4°C 58.2°F14.6°C 89% Calm Calm -- 30.15 in1021.0 mb 0.00 in0.0 mm 0.00 in0.0 mm 0.00 in0.0 mm
02:10 AM 61.3°F16.3°C 58.1°F14.5°C 89% 0.2 mph S0.3 kmh S 2.5 mph4.0 kmh 30.15 in1021.0 mb 0.00 in0.0 mm 0.00 in0.0 mm 0.00 in0.0 mm
02:20 AM 61.5°F16.4°C 58.6°F14.8°C 90% 2.3 mph S3.7 kmh S 6.8 mph10.9 kmh 30.15 in1021.0 mb 0.00 in0.0 mm 0.00 in0.0 mm 0.00 in0.0 mm
02:30 AM 61.5°F16.4°C 58.9°F14.9°C 91% 2.6 mph S4.2 kmh S 6.8 mph10.9 kmh 30.12 in1020.0 mb 0.00 in0.0 mm 0.00 in0.0 mm 0.00 in0.0 mm
02:40 AM 61.2°F16.2°C 58.2°F14.6°C 90% 1.6 mph S2.6 kmh S 6.4 mph10.3 kmh 30.12 in1020.0 mb 0.00 in0.0 mm 0.00 in0.0 mm 0.00 in0.0 mm
02:50 AM 61.0°F16.1°C 58.0°F14.4°C 90% 0.6 mph SSE1.0 kmh SSE 5.0 mph8.0 kmh 30.12 in1020.0 mb 0.00 in0.0 mm 0.00 in0.0 mm 0.00 in0.0 mm
03:00 AM 60.6°F15.9°C 57.7°F14.3°C 90% 0.2 mph S0.3 kmh S 1.8 mph2.9 kmh 30.12 in1020.0 mb 0.00 in0.0 mm 0.00 in0.0 mm 0.00 in0.0 mm
03:10 AM 60.4°F15.8°C 57.5°F14.2°C 90% 0.1 mph SSE0.2 kmh SSE 2.5 mph4.0 kmh 30.12 in1020.0 mb 0.00 in0.0 mm 0.00 in0.0 mm 0.00 in0.0 mm
03:20 AM 60.3°F15.7°C 57.6°F14.2°C 91% 0.5 mph SSE0.8 kmh SSE 3.9 mph6.3 kmh 30.12 in1020.0 mb 0.00 in0.0 mm 0.00 in0.0 mm 0.00 in0.0 mm
03:30 AM 60.1°F15.6°C 57.4°F14.1°C 91% 0.4 mph S0.6 kmh S 4.7 mph7.6 kmh 30.09 in1019.0 mb 0.00 in0.0 mm 0.00 in0.0 mm 0.00 in0.0 mm
03:40 AM 59.9°F15.5°C 57.3°F14.1°C 91% 1.6 mph S2.6 kmh S 4.7 mph7.6 kmh 30.12 in1020.0 mb 0.00 in0.0 mm 0.00 in0.0 mm 0.00 in0.0 mm
03:50 AM 59.9°F15.5°C 57.3°F14.1°C 91% 0.6 mph SSE1.0 kmh SSE 3.9 mph6.3 kmh 30.12 in1020.0 mb 0.00 in0.0 mm 0.00 in0.0 mm 0.00 in0.0 mm
04:00 AM 59.5°F15.3°C 56.9°F13.8°C 91% 0.7 mph SE1.1 kmh SE 4.7 mph7.6 kmh 30.12 in1020.0 mb 0.00 in0.0 mm 0.00 in0.0 mm 0.00 in0.0 mm
04:10 AM 59.0°F15.0°C 56.4°F13.6°C 91% 2.3 mph SE3.7 kmh SE 7.5 mph12.1 kmh 30.12 in1020.0 mb 0.00 in0.0 mm 0.00 in0.0 mm 0.00 in0.0 mm
04:20 AM 58.8°F14.9°C 56.2°F13.4°C 91% 1.9 mph SE3.1 kmh SE 6.4 mph10.3 kmh 30.12 in1020.0 mb 0.00 in0.0 mm 0.00 in0.0 mm 0.00 in0.0 mm
04:30 AM 58.6°F14.8°C 56.3°F13.5°C 92% 1.0 mph SE1.6 kmh SE 6.8 mph10.9 kmh 30.12 in1020.0 mb 0.00 in0.0 mm 0.00 in0.0 mm 0.00 in0.0 mm
04:40 AM 58.6°F14.8°C 56.6°F13.7°C 93% 4.0 mph SE6.4 kmh SE 7.9 mph12.7 kmh 30.12 in1020.0 mb 0.00 in0.0 mm 0.00 in0.0 mm 0.00 in0.0 mm
04:50 AM 58.6°F14.8°C 56.6°F13.7°C 93% Calm Calm -- 30.12 in1020.0 mb 0.00 in0.0 mm 0.00 in0.0 mm 0.00 in0.0 mm
05:00 AM 58.5°F14.7°C 56.4°F13.6°C 93% Calm Calm -- 30.12 in1020.0 mb 0.00 in0.0 mm 0.00 in0.0 mm 0.00 in0.0 mm
05:10 AM 58.5°F14.7°C 56.7°F13.7°C 94% Calm Calm -- 30.12 in1020.0 mb 0.00 in0.0 mm 0.00 in0.0 mm 0.00 in0.0 mm
05:20 AM 58.8°F14.9°C 57.1°F13.9°C 94% 2.6 mph SE4.2 kmh SE 6.4 mph10.3 kmh 30.12 in1020.0 mb 0.00 in0.0 mm 0.00 in0.0 mm 0.00 in0.0 mm
05:30 AM 59.4°F15.2°C 57.9°F14.4°C 95% 5.2 mph SE8.4 kmh SE 6.4 mph10.3 kmh 30.12 in1020.0 mb 0.00 in0.0 mm 0.00 in0.0 mm 0.00 in0.0 mm
05:40 AM 59.4°F15.2°C 57.9°F14.4°C 95% 5.2 mph SE8.4 kmh SE 6.4 mph10.3 kmh 30.12 in1020.0 mb 0.00 in0.0 mm 0.00 in0.0 mm 0.00 in0.0 mm
05:50 AM 59.5°F15.3°C 58.1°F14.5°C 95% 5.2 mph SE8.4 kmh SE 6.4 mph10.3 kmh 30.12 in1020.0 mb 0.00 in0.0 mm 0.00 in0.0 mm 0.00 in0.0 mm
06:00 AM 59.7°F15.4°C 58.3°F14.6°C 95% 5.5 mph SE8.9 kmh SE 6.8 mph10.9 kmh 30.12 in1020.0 mb 0.00 in0.0 mm 0.00 in0.0 mm 0.00 in0.0 mm
06:10 AM 60.1°F15.6°C 58.9°F14.9°C 96% 5.5 mph SE8.9 kmh SE 6.8 mph10.9 kmh 30.12 in1020.0 mb 0.00 in0.0 mm 0.00 in0.0 mm 0.00 in0.0 mm
06:20 AM 60.4°F15.8°C 59.3°F15.2°C 96% 5.5 mph SE8.9 kmh SE 6.8 mph10.9 kmh 30.12 in1020.0 mb 0.00 in0.0 mm 0.00 in0.0 mm 0.00 in0.0 mm
06:30 AM 60.4°F15.8°C 59.3°F15.2°C 96% 5.5 mph SE8.9 kmh SE 6.8 mph10.9 kmh 30.12 in1020.0 mb 0.00 in0.0 mm 0.00 in0.0 mm 0.00 in0.0 mm
06:40 AM 60.6°F15.9°C 59.5°F15.3°C 96% 5.5 mph SE8.9 kmh SE 6.8 mph10.9 kmh 30.12 in1020.0 mb 0.00 in0.0 mm 0.00 in0.0 mm 0.00 in0.0 mm
06:50 AM 60.8°F16.0°C 59.7°F15.4°C 96% 5.5 mph SE8.9 kmh SE 6.8 mph10.9 kmh 30.12 in1020.0 mb 0.00 in0.0 mm 0.00 in0.0 mm 0.00 in0.0 mm
07:00 AM 61.0°F16.1°C 59.8°F15.4°C 96% 5.5 mph SE8.9 kmh SE 6.8 mph10.9 kmh 30.12 in1020.0 mb 0.00 in0.0 mm 0.00 in0.0 mm 0.00 in0.0 mm
07:10 AM 61.2°F16.2°C 60.0°F15.6°C 96% 5.5 mph SE8.9 kmh SE 6.8 mph10.9 kmh 30.12 in1020.0 mb 0.00 in0.0 mm 0.00 in0.0 mm 0.00 in0.0 mm
07:20 AM 61.5°F16.4°C 60.4°F15.8°C 96% 5.5 mph SE8.9 kmh SE 6.8 mph10.9 kmh 30.12 in1020.0 mb 0.00 in0.0 mm 0.00 in0.0 mm 0.00 in0.0 mm
07:30 AM 61.9°F16.6°C 60.7°F15.9°C 96% 5.5 mph SE8.9 kmh SE 6.8 mph10.9 kmh 30.12 in1020.0 mb 0.00 in0.0 mm 0.00 in0.0 mm 0.00 in0.0 mm
07:40 AM 62.4°F16.9°C 61.3°F16.3°C 96% 5.5 mph SE8.9 kmh SE 6.8 mph10.9 kmh 30.12 in1020.0 mb 0.00 in0.0 mm 0.00 in0.0 mm 0.00 in0.0 mm
07:50 AM 63.1°F17.3°C 62.0°F16.7°C 96% 5.5 mph SE8.9 kmh SE 6.8 mph10.9 kmh 30.12 in1020.0 mb 0.00 in0.0 mm 0.00 in0.0 mm 0.00 in0.0 mm
08:00 AM 64.2°F17.9°C 63.1°F17.3°C 96% 5.2 mph SE8.4 kmh SE 6.4 mph10.3 kmh 30.12 in1020.0 mb 0.00 in0.0 mm 0.00 in0.0 mm 0.00 in0.0 mm
08:10 AM 64.9°F18.3°C 63.8°F17.7°C 96% 5.2 mph SE8.4 kmh SE 6.4 mph10.3 kmh 30.12 in1020.0 mb 0.00 in0.0 mm 0.00 in0.0 mm 0.00 in0.0 mm
08:20 AM 65.8°F18.8°C 64.7°F18.2°C 96% 4.5 mph ESE7.2 kmh ESE 6.4 mph10.3 kmh 30.12 in1020.0 mb 0.00 in0.0 mm 0.00 in0.0 mm 0.00 in0.0 mm
08:30 AM 66.6°F19.2°C 65.1°F18.4°C 95% 4.2 mph ESE6.8 kmh ESE 12.2 mph19.6 kmh 30.09 in1019.0 mb 0.00 in0.0 mm 0.00 in0.0 mm 0.00 in0.0 mm
08:40 AM 67.6°F19.8°C 66.2°F19.0°C 95% 4.0 mph E6.4 kmh E 8.6 mph13.8 kmh 30.12 in1020.0 mb 0.00 in0.0 mm 0.00 in0.0 mm 0.00 in0.0 mm
08:50 AM 68.2°F20.1°C 66.1°F18.9°C 93% 3.2 mph E5.1 kmh E 11.8 mph19.0 kmh 30.12 in1020.0 mb 0.00 in0.0 mm 0.00 in0.0 mm 0.00 in0.0 mm
09:00 AM 68.7°F20.4°C 66.0°F18.9°C 91% 5.3 mph SE8.5 kmh SE 9.3 mph15.0 kmh 30.09 in1019.0 mb 0.00 in0.0 mm 0.00 in0.0 mm 0.00 in0.0 mm
09:10 AM 69.6°F20.9°C 66.2°F19.0°C 89% 5.0 mph ESE8.0 kmh ESE 11.5 mph18.5 kmh 30.09 in1019.0 mb 0.00 in0.0 mm 0.00 in0.0 mm 0.00 in0.0 mm
09:20 AM 70.0°F21.1°C 65.6°F18.7°C 86% 2.0 mph SE3.2 kmh SE 7.2 mph11.6 kmh 30.09 in1019.0 mb 0.00 in0.0 mm 0.00 in0.0 mm 0.00 in0.0 mm
09:30 AM 70.3°F21.3°C 65.3°F18.5°C 84% 2.3 mph SE3.7 kmh SE 8.9 mph14.3 kmh 30.09 in1019.0 mb 0.00 in0.0 mm 0.00 in0.0 mm 0.00 in0.0 mm
09:40 AM 70.2°F21.2°C 63.7°F17.6°C 80% 2.7 mph SSE4.3 kmh SSE 6.8 mph10.9 kmh 30.09 in1019.0 mb 0.00 in0.0 mm 0.00 in0.0 mm 0.00 in0.0 mm
09:50 AM 70.3°F21.3°C 63.2°F17.3°C 78% 3.4 mph SSE5.5 kmh SSE 9.3 mph15.0 kmh 30.09 in1019.0 mb 0.00 in0.0 mm 0.00 in0.0 mm 0.00 in0.0 mm
10:00 AM 71.1°F21.7°C 63.5°F17.5°C 77% 2.7 mph S4.3 kmh S 7.2 mph11.6 kmh 30.09 in1019.0 mb 0.00 in0.0 mm 0.00 in0.0 mm 0.00 in0.0 mm
10:10 AM 71.4°F21.9°C 62.3°F16.8°C 73% 5.1 mph SSE8.2 kmh SSE 17.5 mph28.2 kmh 30.09 in1019.0 mb 0.00 in0.0 mm 0.00 in0.0 mm 0.00 in0.0 mm
10:20 AM 71.6°F22.0°C 61.3°F16.3°C 70% 5.2 mph SSE8.4 kmh SSE 10.4 mph16.7 kmh 30.09 in1019.0 mb 0.00 in0.0 mm 0.00 in0.0 mm 0.00 in0.0 mm
10:30 AM 72.0°F22.2°C 60.8°F16.0°C 68% 5.5 mph SE8.9 kmh SE 12.9 mph20.8 kmh 30.09 in1019.0 mb 0.00 in0.0 mm 0.00 in0.0 mm 0.00 in0.0 mm
10:40 AM 72.1°F22.3°C 60.2°F15.7°C 66% 4.9 mph SE7.9 kmh SE 12.5 mph20.1 kmh 30.09 in1019.0 mb 0.00 in0.0 mm 0.00 in0.0 mm 0.00 in0.0 mm
10:50 AM 72.3°F22.4°C 60.3°F15.7°C 66% 4.4 mph S7.1 kmh S 11.5 mph18.5 kmh 30.09 in1019.0 mb 0.00 in0.0 mm 0.00 in0.0 mm 0.00 in0.0 mm
11:00 AM 72.9°F22.7°C 61.3°F16.3°C 67% 3.8 mph S6.1 kmh S 11.8 mph19.0 kmh 30.09 in1019.0 mb 0.00 in0.0 mm 0.00 in0.0 mm 0.00 in0.0 mm
11:10 AM 73.2°F22.9°C 61.2°F16.2°C 66% 5.2 mph SSE8.4 kmh SSE 11.8 mph19.0 kmh 30.07 in1018.3 mb 0.00 in0.0 mm 0.00 in0.0 mm 0.00 in0.0 mm
11:20 AM 73.6°F23.1°C 61.1°F16.2°C 65% 5.6 mph SSE9.0 kmh SSE 12.9 mph20.8 kmh 30.07 in1018.3 mb 0.00 in0.0 mm 0.00 in0.0 mm 0.00 in0.0 mm
11:30 AM 73.9°F23.3°C 61.0°F16.1°C 64% 5.0 mph SE8.0 kmh SE 12.5 mph20.1 kmh 30.07 in1018.3 mb 0.00 in0.0 mm 0.00 in0.0 mm 0.00 in0.0 mm
11:40 AM 74.3°F23.5°C 60.9°F16.1°C 63% 4.6 mph S7.4 kmh S 9.7 mph15.6 kmh 30.07 in1018.3 mb 0.00 in0.0 mm 0.00 in0.0 mm 0.00 in0.0 mm
11:50 AM 74.7°F23.7°C 60.8°F16.0°C 62% 4.8 mph S7.7 kmh S 10.0 mph16.1 kmh 30.07 in1018.3 mb 0.00 in0.0 mm 0.00 in0.0 mm 0.00 in0.0 mm
12:00 PM 75.2°F24.0°C 60.8°F16.0°C 61% 5.3 mph SSE8.5 kmh SSE 13.6 mph21.9 kmh 30.07 in1018.3 mb 0.00 in0.0 mm 0.00 in0.0 mm 0.00 in0.0 mm
12:10 PM 75.6°F24.2°C 60.2°F15.7°C 59% 5.4 mph SE8.7 kmh SE 13.6 mph21.9 kmh 30.07 in1018.3 mb 0.00 in0.0 mm 0.00 in0.0 mm 0.00 in0.0 mm
12:20 PM 75.7°F24.3°C 60.4°F15.8°C 59% 3.5 mph S5.6 kmh S 10.0 mph16.1 kmh 30.07 in1018.3 mb 0.00 in0.0 mm 0.00 in0.0 mm 0.00 in0.0 mm
12:30 PM 75.9°F24.4°C 60.6°F15.9°C 59% 5.0 mph S8.0 kmh S 12.2 mph19.6 kmh 30.04 in1017.3 mb 0.00 in0.0 mm 0.00 in0.0 mm 0.00 in0.0 mm
12:40 PM 76.3°F24.6°C 60.9°F16.1°C 59% 5.8 mph SSE9.3 kmh SSE 15.0 mph24.1 kmh 30.04 in1017.3 mb 0.00 in0.0 mm 0.00 in0.0 mm 0.00 in0.0 mm
12:50 PM 76.6°F24.8°C 60.8°F16.0°C 58% 5.8 mph SSE9.3 kmh SSE 16.8 mph27.0 kmh 30.04 in1017.3 mb 0.00 in0.0 mm 0.00 in0.0 mm 0.00 in0.0 mm
01:00 PM 76.6°F24.8°C 60.8°F16.0°C 58% 5.5 mph SE8.9 kmh SE 14.0 mph22.5 kmh 30.07 in1018.3 mb 0.00 in0.0 mm 0.00 in0.0 mm 0.00 in0.0 mm
01:10 PM 77.2°F25.1°C 60.8°F16.0°C 57% 3.3 mph S5.3 kmh S 10.4 mph16.7 kmh 30.07 in1018.3 mb 0.00 in0.0 mm 0.00 in0.0 mm 0.00 in0.0 mm
01:20 PM 77.5°F25.3°C 61.6°F16.4°C 58% 5.4 mph SSE8.7 kmh SSE 12.2 mph19.6 kmh 30.07 in1018.3 mb 0.00 in0.0 mm 0.00 in0.0 mm 0.00 in0.0 mm
01:30 PM 77.7°F25.4°C 60.8°F16.0°C 56% 4.8 mph SE7.7 kmh SE 12.9 mph20.8 kmh 30.04 in1017.3 mb 0.00 in0.0 mm 0.00 in0.0 mm 0.00 in0.0 mm
01:40 PM 77.7°F25.4°C 60.8°F16.0°C 56% 7.3 mph SE11.7 kmh SE 16.5 mph26.6 kmh 30.04 in1017.3 mb 0.00 in0.0 mm 0.00 in0.0 mm 0.00 in0.0 mm
01:50 PM 77.9°F25.5°C 61.4°F16.3°C 57% 4.3 mph S6.9 kmh S 10.4 mph16.7 kmh 30.04 in1017.3 mb 0.00 in0.0 mm 0.00 in0.0 mm 0.00 in0.0 mm
02:00 PM 78.4°F25.8°C 62.4°F16.9°C 58% 4.1 mph S6.6 kmh S 12.5 mph20.1 kmh 30.04 in1017.3 mb 0.00 in0.0 mm 0.00 in0.0 mm 0.00 in0.0 mm
02:10 PM 79.0°F26.1°C 62.9°F17.2°C 58% 5.6 mph S9.0 kmh S 12.5 mph20.1 kmh 30.01 in1016.3 mb 0.00 in0.0 mm 0.00 in0.0 mm 0.00 in0.0 mm
02:20 PM 79.2°F26.2°C 62.1°F16.7°C 56% 7.1 mph SE11.4 kmh SE 20.0 mph32.2 kmh 30.01 in1016.3 mb 0.00 in0.0 mm 0.00 in0.0 mm 0.00 in0.0 mm
02:30 PM 79.3°F26.3°C 62.3°F16.8°C 56% 5.4 mph SE8.7 kmh SE 28.3 mph45.5 kmh 30.01 in1016.3 mb 0.00 in0.0 mm 0.00 in0.0 mm 0.00 in0.0 mm
02:40 PM 79.2°F26.2°C 62.1°F16.7°C 56% 6.5 mph SE10.5 kmh SE 17.5 mph28.2 kmh 30.01 in1016.3 mb 0.00 in0.0 mm 0.00 in0.0 mm 0.00 in0.0 mm
02:50 PM 79.0°F26.1°C 61.9°F16.6°C 56% 6.2 mph SE10.0 kmh SE 17.5 mph28.2 kmh 30.01 in1016.3 mb 0.00 in0.0 mm 0.00 in0.0 mm 0.00 in0.0 mm
03:00 PM 79.3°F26.3°C 62.8°F17.1°C 57% 6.7 mph SSE10.8 kmh SSE 17.5 mph28.2 kmh 30.01 in1016.3 mb 0.00 in0.0 mm 0.00 in0.0 mm 0.00 in0.0 mm
03:10 PM 79.5°F26.4°C 62.4°F16.9°C 56% 6.7 mph SE10.8 kmh SE 20.8 mph33.5 kmh 30.01 in1016.3 mb 0.00 in0.0 mm 0.00 in0.0 mm 0.00 in0.0 mm
03:20 PM 79.3°F26.3°C 62.3°F16.8°C 56% 8.2 mph SE13.2 kmh SE 20.8 mph33.5 kmh 30.01 in1016.3 mb 0.00 in0.0 mm 0.00 in0.0 mm 0.00 in0.0 mm
03:30 PM 79.3°F26.3°C 62.3°F16.8°C 56% 7.5 mph SE12.1 kmh SE 17.5 mph28.2 kmh 30.01 in1016.3 mb 0.00 in0.0 mm 0.00 in0.0 mm 0.00 in0.0 mm
03:40 PM 79.3°F26.3°C 62.8°F17.1°C 57% 7.2 mph SE11.6 kmh SE 16.8 mph27.0 kmh 29.98 in1015.2 mb 0.00 in0.0 mm 0.00 in0.0 mm 0.00 in0.0 mm
03:50 PM 79.2°F26.2°C 62.6°F17.0°C 57% 5.6 mph SSE9.0 kmh SSE 15.7 mph25.3 kmh 29.98 in1015.2 mb 0.00 in0.0 mm 0.00 in0.0 mm 0.00 in0.0 mm
04:00 PM 79.2°F26.2°C 63.1°F17.3°C 58% 4.6 mph SE7.4 kmh SE 11.8 mph19.0 kmh 29.98 in1015.2 mb 0.00 in0.0 mm 0.00 in0.0 mm 0.00 in0.0 mm
04:10 PM 78.8°F26.0°C 62.8°F17.1°C 58% 5.4 mph SE8.7 kmh SE 16.1 mph25.9 kmh 29.98 in1015.2 mb 0.00 in0.0 mm 0.00 in0.0 mm 0.00 in0.0 mm
04:20 PM 78.8°F26.0°C 62.8°F17.1°C 58% 4.5 mph SSE7.2 kmh SSE 11.8 mph19.0 kmh 29.98 in1015.2 mb 0.00 in0.0 mm 0.00 in0.0 mm 0.00 in0.0 mm
04:30 PM 78.6°F25.9°C 62.6°F17.0°C 58% 3.8 mph SE6.1 kmh SE 11.8 mph19.0 kmh 29.95 in1014.2 mb 0.00 in0.0 mm 0.00 in0.0 mm 0.00 in0.0 mm
04:40 PM 78.8°F26.0°C 63.3°F17.4°C 59% 4.7 mph SE7.6 kmh SE 14.3 mph23.0 kmh 29.95 in1014.2 mb 0.00 in0.0 mm 0.00 in0.0 mm 0.00 in0.0 mm
04:50 PM 78.4°F25.8°C 62.9°F17.2°C 59% 4.9 mph ESE7.9 kmh ESE 12.2 mph19.6 kmh 29.95 in1014.2 mb 0.00 in0.0 mm 0.00 in0.0 mm 0.00 in0.0 mm
05:00 PM 77.9°F25.5°C 62.4°F16.9°C 59% 4.1 mph SE6.6 kmh SE 12.9 mph20.8 kmh 29.92 in1013.2 mb 0.00 in0.0 mm 0.00 in0.0 mm 0.00 in0.0 mm
05:10 PM 77.9°F25.5°C 62.9°F17.2°C 60% 2.9 mph ESE4.7 kmh ESE 7.9 mph12.7 kmh 29.95 in1014.2 mb 0.00 in0.0 mm 0.00 in0.0 mm 0.00 in0.0 mm
05:20 PM 78.1°F25.6°C 63.5°F17.5°C 61% 3.0 mph SE4.8 kmh SE 9.3 mph15.0 kmh 29.95 in1014.2 mb 0.00 in0.0 mm 0.00 in0.0 mm 0.00 in0.0 mm
05:30 PM 77.9°F25.5°C 63.4°F17.4°C 61% 2.8 mph ESE4.5 kmh ESE 10.0 mph16.1 kmh 29.95 in1014.2 mb 0.00 in0.0 mm 0.00 in0.0 mm 0.00 in0.0 mm
05:40 PM 77.2°F25.1°C 62.7°F17.1°C 61% 4.3 mph ESE6.9 kmh ESE 10.0 mph16.1 kmh 29.95 in1014.2 mb 0.00 in0.0 mm 0.00 in0.0 mm 0.00 in0.0 mm
05:50 PM 76.8°F24.9°C 63.3°F17.4°C 63% 2.7 mph ESE4.3 kmh ESE 8.6 mph13.8 kmh 29.95 in1014.2 mb 0.00 in0.0 mm 0.00 in0.0 mm 0.00 in0.0 mm
06:00 PM 76.3°F24.6°C 62.8°F17.1°C 63% 3.0 mph SE4.8 kmh SE 12.5 mph20.1 kmh 29.95 in1014.2 mb 0.00 in0.0 mm 0.00 in0.0 mm 0.00 in0.0 mm
06:10 PM 75.7°F24.3°C 62.7°F17.1°C 64% 2.1 mph E3.4 kmh E 10.4 mph16.7 kmh 29.95 in1014.2 mb 0.00 in0.0 mm 0.00 in0.0 mm 0.00 in0.0 mm
06:20 PM 75.4°F24.1°C 62.4°F16.9°C 64% 3.5 mph SE5.6 kmh SE 11.5 mph18.5 kmh 29.95 in1014.2 mb 0.00 in0.0 mm 0.00 in0.0 mm 0.00 in0.0 mm
06:30 PM 75.0°F23.9°C 62.9°F17.2°C 66% 2.2 mph SE3.5 kmh SE 6.8 mph10.9 kmh 29.95 in1014.2 mb 0.00 in0.0 mm 0.00 in0.0 mm 0.00 in0.0 mm
06:40 PM 74.5°F23.6°C 62.8°F17.1°C 67% 2.6 mph ESE4.2 kmh ESE 8.9 mph14.3 kmh 29.92 in1013.2 mb 0.00 in0.0 mm 0.00 in0.0 mm 0.00 in0.0 mm
06:50 PM 74.1°F23.4°C 62.9°F17.2°C 68% 4.0 mph SE6.4 kmh SE 10.0 mph16.1 kmh 29.92 in1013.2 mb 0.00 in0.0 mm 0.00 in0.0 mm 0.00 in0.0 mm
07:00 PM 73.6°F23.1°C 62.8°F17.1°C 69% 4.0 mph ESE6.4 kmh ESE 11.8 mph19.0 kmh 29.92 in1013.2 mb 0.00 in0.0 mm 0.00 in0.0 mm 0.00 in0.0 mm
07:10 PM 73.0°F22.8°C 62.3°F16.8°C 69% 7.7 mph SE12.4 kmh SE 20.0 mph32.2 kmh 29.92 in1013.2 mb 0.00 in0.0 mm 0.00 in0.0 mm 0.00 in0.0 mm
07:20 PM 72.5°F22.5°C 62.2°F16.8°C 70% 4.7 mph SE7.6 kmh SE 12.9 mph20.8 kmh 29.92 in1013.2 mb 0.00 in0.0 mm 0.00 in0.0 mm 0.00 in0.0 mm
07:30 PM 72.0°F22.2°C 61.6°F16.4°C 70% 3.6 mph ESE5.8 kmh ESE 11.5 mph18.5 kmh 29.92 in1013.2 mb 0.00 in0.0 mm 0.00 in0.0 mm 0.00 in0.0 mm
07:40 PM 71.6°F22.0°C 61.7°F16.5°C 71% 5.8 mph SE9.3 kmh SE 14.0 mph22.5 kmh 29.92 in1013.2 mb 0.00 in0.0 mm 0.00 in0.0 mm 0.00 in0.0 mm
07:50 PM 71.2°F21.8°C 62.1°F16.7°C 73% 6.3 mph SE10.1 kmh SE 16.8 mph27.0 kmh 29.92 in1013.2 mb 0.00 in0.0 mm 0.00 in0.0 mm 0.00 in0.0 mm
08:00 PM 70.7°F21.5°C 61.6°F16.4°C 73% 5.4 mph SE8.7 kmh SE 14.0 mph22.5 kmh 29.92 in1013.2 mb 0.00 in0.0 mm 0.00 in0.0 mm 0.00 in0.0 mm
08:10 PM 70.3°F21.3°C 61.7°F16.5°C 74% 3.3 mph ESE5.3 kmh ESE 12.5 mph20.1 kmh 29.92 in1013.2 mb 0.00 in0.0 mm 0.00 in0.0 mm 0.00 in0.0 mm
08:20 PM 70.0°F21.1°C 61.7°F16.5°C 75% 4.6 mph SE7.4 kmh SE 12.2 mph19.6 kmh 29.92 in1013.2 mb 0.00 in0.0 mm 0.00 in0.0 mm 0.00 in0.0 mm
08:30 PM 69.8°F21.0°C 61.9°F16.6°C 76% 4.8 mph SE7.7 kmh SE 12.9 mph20.8 kmh 29.92 in1013.2 mb 0.00 in0.0 mm 0.00 in0.0 mm 0.00 in0.0 mm
08:40 PM 69.4°F20.8°C 61.9°F16.6°C 77% 4.5 mph SE7.2 kmh SE 12.9 mph20.8 kmh 29.92 in1013.2 mb 0.00 in0.0 mm 0.00 in0.0 mm 0.00 in0.0 mm
08:50 PM 69.1°F20.6°C 61.9°F16.6°C 78% 2.8 mph SE4.5 kmh SE 14.0 mph22.5 kmh 29.92 in1013.2 mb 0.00 in0.0 mm 0.00 in0.0 mm 0.00 in0.0 mm
09:00 PM 68.9°F20.5°C 61.8°F16.6°C 78% 3.2 mph ESE5.1 kmh ESE 10.0 mph16.1 kmh 29.92 in1013.2 mb 0.00 in0.0 mm 0.00 in0.0 mm 0.00 in0.0 mm
09:10 PM 68.7°F20.4°C 62.3°F16.8°C 80% 5.8 mph E9.3 kmh E 11.8 mph19.0 kmh 29.92 in1013.2 mb 0.00 in0.0 mm 0.00 in0.0 mm 0.00 in0.0 mm
09:20 PM 68.5°F20.3°C 62.5°F16.9°C 81% 7.1 mph ESE11.4 kmh ESE 14.0 mph22.5 kmh 29.92 in1013.2 mb 0.00 in0.0 mm 0.00 in0.0 mm 0.00 in0.0 mm
09:30 PM 68.4°F20.2°C 62.3°F16.8°C 81% 6.6 mph ESE10.6 kmh ESE 12.9 mph20.8 kmh 29.92 in1013.2 mb 0.00 in0.0 mm 0.00 in0.0 mm 0.00 in0.0 mm
09:40 PM 68.4°F20.2°C 62.6°F17.0°C 82% 6.9 mph ESE11.1 kmh ESE 14.0 mph22.5 kmh 29.89 in1012.2 mb 0.00 in0.0 mm 0.00 in0.0 mm 0.00 in0.0 mm
09:50 PM 68.4°F20.2°C 62.6°F17.0°C 82% 6.0 mph E9.7 kmh E 14.0 mph22.5 kmh 29.89 in1012.2 mb 0.00 in0.0 mm 0.00 in0.0 mm 0.00 in0.0 mm
10:00 PM 68.4°F20.2°C 63.0°F17.2°C 83% 8.6 mph ESE13.8 kmh ESE 16.1 mph25.9 kmh 29.86 in1011.2 mb 0.00 in0.0 mm 0.00 in0.0 mm 0.00 in0.0 mm
10:10 PM 68.4°F20.2°C 62.6°F17.0°C 82% 5.7 mph ESE9.2 kmh ESE 10.4 mph16.7 kmh 29.86 in1011.2 mb 0.00 in0.0 mm 0.00 in0.0 mm 0.00 in0.0 mm
10:20 PM 68.2°F20.1°C 62.5°F16.9°C 82% 3.1 mph SE5.0 kmh SE 12.2 mph19.6 kmh 29.86 in1011.2 mb 0.00 in0.0 mm 0.00 in0.0 mm 0.00 in0.0 mm
10:30 PM 68.0°F20.0°C 62.3°F16.8°C 82% 0.1 mph SE0.2 kmh SE 6.1 mph9.8 kmh 29.89 in1012.2 mb 0.00 in0.0 mm 0.00 in0.0 mm 0.00 in0.0 mm
10:40 PM 67.5°F19.7°C 61.4°F16.3°C 81% 0.2 mph E0.3 kmh E 3.2 mph5.1 kmh 29.86 in1011.2 mb 0.00 in0.0 mm 0.00 in0.0 mm 0.00 in0.0 mm
10:50 PM 67.1°F19.5°C 61.4°F16.3°C 82% 0.5 mph E0.8 kmh E 7.5 mph12.1 kmh 29.86 in1011.2 mb 0.00 in0.0 mm 0.00 in0.0 mm 0.00 in0.0 mm
11:00 PM 67.3°F19.6°C 62.3°F16.8°C 84% 2.1 mph E3.4 kmh E 7.9 mph12.7 kmh 29.86 in1011.2 mb 0.00 in0.0 mm 0.00 in0.0 mm 0.00 in0.0 mm
11:10 PM 67.5°F19.7°C 62.8°F17.1°C 85% 3.3 mph E5.3 kmh E 7.9 mph12.7 kmh 29.83 in1010.2 mb 0.00 in0.0 mm 0.00 in0.0 mm 0.00 in0.0 mm
11:20 PM 67.6°F19.8°C 63.0°F17.2°C 85% 4.5 mph ESE7.2 kmh ESE 14.0 mph22.5 kmh 29.83 in1010.2 mb 0.00 in0.0 mm 0.00 in0.0 mm 0.00 in0.0 mm
11:30 PM 68.0°F20.0°C 63.0°F17.2°C 84% 5.2 mph E8.4 kmh E 15.4 mph24.8 kmh 29.83 in1010.2 mb 0.00 in0.0 mm 0.00 in0.0 mm 0.00 in0.0 mm
11:40 PM 68.4°F20.2°C 63.0°F17.2°C 83% 6.0 mph ESE9.7 kmh ESE 15.4 mph24.8 kmh 29.83 in1010.2 mb 0.00 in0.0 mm 0.00 in0.0 mm 0.00 in0.0 mm
11:50 PM 68.7°F20.4°C 63.0°F17.2°C 82% 5.8 mph SE9.3 kmh SE 17.2 mph27.7 kmh 29.83 in1010.2 mb 0.00 in0.0 mm 0.00 in0.0 mm 0.00 in0.0 mm